createdAt,value
2023-05-12T00:02:01.075Z,99474.47
2023-05-12T00:04:28.125Z,99472.97
2023-05-12T00:06:57.672Z,99465.16
2023-05-12T00:09:24.714Z,99473.06
2023-05-12T00:11:52.395Z,99467.72
2023-05-12T00:14:20.252Z,99467.72
2023-05-12T00:16:51.589Z,99477.94
2023-05-12T00:19:20.336Z,99468.88
2023-05-12T00:21:48.154Z,99475.06
2023-05-12T00:24:15.417Z,99473.41
2023-05-12T00:26:42.692Z,99478.44
2023-05-12T00:29:09.696Z,99478.06
2023-05-12T00:31:37.081Z,99479.91
2023-05-12T00:34:05.197Z,99480.59
2023-05-12T00:36:32.449Z,99477.78
2023-05-12T00:38:59.558Z,99483.00
2023-05-12T00:41:27.266Z,99485.94
2023-05-12T00:43:54.297Z,99484.16
2023-05-12T00:46:22.170Z,99481.31
2023-05-12T00:48:49.583Z,99487.13
2023-05-12T00:51:17.114Z,99489.69
2023-05-12T00:53:49.912Z,99490.13
2023-05-12T00:56:19.952Z,99493.94
2023-05-12T00:58:47.495Z,99498.47
2023-05-12T01:01:16.474Z,99493.09
2023-05-12T01:03:46.121Z,99499.72
2023-05-12T01:06:24.771Z,99504.25
2023-05-12T01:08:53.853Z,99499.81
2023-05-12T01:11:22.752Z,99505.63
2023-05-12T01:13:49.848Z,99504.06
2023-05-12T01:16:25.343Z,99502.06
2023-05-12T01:18:56.820Z,99508.53
2023-05-12T01:21:24.717Z,99513.50
2023-05-12T01:24:02.755Z,99504.28
2023-05-12T01:26:32.326Z,99513.97
2023-05-12T01:29:03.085Z,99510.56
2023-05-12T01:31:32.423Z,99515.13
2023-05-12T01:33:59.481Z,99517.22
2023-05-12T01:36:27.085Z,99515.88
2023-05-12T01:38:55.490Z,99523.50
2023-05-12T01:41:22.751Z,99516.22
2023-05-12T01:43:50.364Z,99517.31
2023-05-12T01:46:18.295Z,99513.63
2023-05-12T01:48:45.653Z,99515.25
2023-05-12T01:51:13.168Z,99514.09
2023-05-12T01:53:40.164Z,99512.72
2023-05-12T01:56:07.626Z,99519.09
2023-05-12T01:58:36.040Z,99523.84
2023-05-12T02:01:04.547Z,99520.59
2023-05-12T02:03:31.534Z,99519.94
2023-05-12T02:05:59.058Z,99524.25
2023-05-12T02:08:26.037Z,99518.75
2023-05-12T02:11:08.936Z,99521.84
2023-05-12T02:13:36.397Z,99519.03
2023-05-12T02:16:04.434Z,99524.59
2023-05-12T02:18:31.741Z,99514.56
2023-05-12T02:20:59.359Z,99517.06
2023-05-12T02:23:26.387Z,99518.31
2023-05-12T02:25:53.698Z,99519.56
2023-05-12T02:28:20.969Z,99527.00
2023-05-12T02:30:50.931Z,99522.91
2023-05-12T02:33:23.159Z,99521.03
2023-05-12T02:35:50.955Z,99522.03
2023-05-12T02:38:18.226Z,99516.31
2023-05-12T02:40:47.636Z,99528.22
2023-05-12T02:43:15.653Z,99520.44
2023-05-12T02:45:43.705Z,99530.13
2023-05-12T02:48:11.057Z,99535.28
2023-05-12T02:50:38.376Z,99521.78
2023-05-12T02:53:05.639Z,99528.34
2023-05-12T02:55:34.067Z,99523.06
2023-05-12T02:58:01.037Z,99521.41
2023-05-12T03:00:28.550Z,99527.63
2023-05-12T03:02:55.725Z,99526.59
2023-05-12T03:05:23.100Z,99523.91
2023-05-12T03:07:50.979Z,99525.38
2023-05-12T03:10:19.186Z,99522.97
2023-05-12T03:12:47.008Z,99513.75
2023-05-12T03:15:14.286Z,99528.56
2023-05-12T03:17:41.578Z,99525.09
2023-05-12T03:20:09.305Z,99532.06
2023-05-12T03:22:37.339Z,99525.72
2023-05-12T03:25:06.653Z,99519.97
2023-05-12T03:27:33.796Z,99528.16
2023-05-12T03:30:01.559Z,99522.78
2023-05-12T03:32:29.979Z,99529.34
2023-05-12T03:34:57.251Z,99531.38
2023-05-12T03:37:24.313Z,99528.91
2023-05-12T03:39:51.607Z,99526.84
2023-05-12T03:42:19.196Z,99526.53
2023-05-12T03:44:46.500Z,99533.44
2023-05-12T03:47:13.786Z,99536.75
2023-05-12T03:49:41.131Z,99527.22
2023-05-12T03:52:08.463Z,99528.81
2023-05-12T03:54:37.936Z,99530.41
2023-05-12T03:57:05.767Z,99534.81
2023-05-12T03:59:36.165Z,99536.84
2023-05-12T04:02:03.267Z,99539.84
2023-05-12T04:04:30.570Z,99544.28
2023-05-12T04:06:59.936Z,99549.72
2023-05-12T04:09:33.104Z,99533.78
2023-05-12T04:12:00.202Z,99550.75
2023-05-12T04:14:39.192Z,99553.69
2023-05-12T04:17:09.683Z,99549.59
2023-05-12T04:19:36.813Z,99549.03
2023-05-12T04:22:03.993Z,99542.06
2023-05-12T04:24:31.502Z,99551.31
2023-05-12T04:26:58.515Z,99554.66
2023-05-12T04:29:26.174Z,99552.44
2023-05-12T04:31:55.675Z,99549.91
2023-05-12T04:34:23.411Z,99548.69
2023-05-12T04:36:50.460Z,99554.75
2023-05-12T04:39:17.715Z,99550.50
2023-05-12T04:41:44.765Z,99555.19
2023-05-12T04:44:12.312Z,99554.47
2023-05-12T04:46:40.538Z,99554.94
2023-05-12T04:49:07.945Z,99556.09
2023-05-12T04:51:34.969Z,99550.69
2023-05-12T04:54:02.227Z,99554.47
2023-05-12T04:56:29.402Z,99553.84
2023-05-12T04:58:56.996Z,99559.63
2023-05-12T05:01:24.101Z,99560.47
2023-05-12T05:03:51.444Z,99550.59
2023-05-12T05:06:19.497Z,99552.41
2023-05-12T05:08:48.335Z,99560.19
2023-05-12T05:11:16.119Z,99561.84
2023-05-12T05:13:44.114Z,99563.28
2023-05-12T05:16:11.322Z,99567.19
2023-05-12T05:18:42.491Z,99567.97
2023-05-12T05:21:09.571Z,99567.75
2023-05-12T05:23:37.032Z,99564.69
2023-05-12T05:26:04.683Z,99566.53
2023-05-12T05:28:32.338Z,99562.50
2023-05-12T05:31:00.800Z,99564.34
2023-05-12T05:33:28.107Z,99574.72
2023-05-12T05:35:55.854Z,99571.94
2023-05-12T05:38:23.178Z,99569.91
2023-05-12T05:40:54.113Z,99571.09
2023-05-12T05:43:23.548Z,99570.34
2023-05-12T05:45:51.531Z,99569.88
2023-05-12T05:48:21.793Z,99575.69
2023-05-12T05:50:51.008Z,99576.84
2023-05-12T05:53:20.669Z,99576.97
2023-05-12T05:55:50.909Z,99578.44
2023-05-12T05:58:18.408Z,99572.56
2023-05-12T06:00:46.759Z,99576.91
2023-05-12T06:03:14.285Z,99565.06
2023-05-12T06:05:43.524Z,99575.38
2023-05-12T06:08:13.440Z,99567.81
2023-05-12T06:10:41.133Z,99565.69
2023-05-12T06:13:08.425Z,99570.56
2023-05-12T06:15:35.910Z,99572.72
2023-05-12T06:18:03.671Z,99561.09
2023-05-12T06:20:32.158Z,99572.16
2023-05-12T06:22:59.917Z,99566.44
2023-05-12T06:25:27.444Z,99569.97
2023-05-12T06:27:54.624Z,99571.56
2023-05-12T06:30:21.777Z,99568.56
2023-05-12T06:32:49.152Z,99573.19
2023-05-12T06:35:16.853Z,99563.59
2023-05-12T06:37:49.281Z,99563.78
2023-05-12T06:40:17.115Z,99562.13
2023-05-12T06:42:44.832Z,99571.50
2023-05-12T06:45:19.583Z,99564.22
2023-05-12T06:47:47.081Z,99568.22
2023-05-12T06:50:15.462Z,99567.47
2023-05-12T06:52:44.743Z,99567.88
2023-05-12T06:55:11.861Z,99566.75
2023-05-12T06:57:39.049Z,99566.06
2023-05-12T07:00:07.546Z,99559.91
2023-05-12T07:02:34.901Z,99574.56
2023-05-12T07:05:03.139Z,99566.75
2023-05-12T07:07:30.487Z,99566.94
2023-05-12T07:09:57.409Z,99561.97
2023-05-12T07:12:24.718Z,99558.84
2023-05-12T07:14:52.049Z,99557.16
2023-05-12T07:17:19.225Z,99561.16
2023-05-12T07:19:46.142Z,99564.06
2023-05-12T07:22:13.563Z,99572.03
2023-05-12T07:24:41.526Z,99559.34
2023-05-12T07:27:08.751Z,99560.19
2023-05-12T07:29:35.763Z,99549.63
2023-05-12T07:32:03.202Z,99555.28
2023-05-12T07:34:33.734Z,99567.97
2023-05-12T07:37:02.419Z,99559.41
2023-05-12T07:39:32.130Z,99559.03
2023-05-12T07:41:59.471Z,99564.47
2023-05-12T07:44:27.953Z,99554.84
2023-05-12T07:46:55.320Z,99560.28
2023-05-12T07:49:23.276Z,99551.78
2023-05-12T07:51:50.731Z,99550.97
2023-05-12T07:54:17.716Z,99544.84
2023-05-12T07:56:45.023Z,99548.06
2023-05-12T07:59:13.238Z,99537.75
2023-05-12T08:01:40.954Z,99543.84
2023-05-12T08:04:08.097Z,99540.59
2023-05-12T08:06:35.604Z,99540.81
2023-05-12T08:09:02.669Z,99533.72
2023-05-12T08:11:30.041Z,99548.03
2023-05-12T08:13:57.154Z,99530.00
2023-05-12T08:16:24.476Z,99532.03
2023-05-12T08:18:51.639Z,99531.13
2023-05-12T08:21:18.987Z,99534.66
2023-05-12T08:23:45.857Z,99531.69
2023-05-12T08:26:13.091Z,99525.03
2023-05-12T08:28:41.468Z,99526.94
2023-05-12T08:31:08.839Z,99533.28
2023-05-12T08:33:36.178Z,99528.50
2023-05-12T08:36:04.371Z,99526.63
2023-05-12T08:38:32.815Z,99530.34
2023-05-12T08:41:22.114Z,99529.19
2023-05-12T08:43:52.292Z,99523.84
2023-05-12T08:46:21.472Z,99520.59
2023-05-12T08:48:52.062Z,99522.72
2023-05-12T08:51:20.890Z,99523.81
2023-05-12T08:53:50.096Z,99517.94
2023-05-12T08:58:53.421Z,99515.88
2023-05-12T09:01:21.508Z,99514.59
2023-05-12T09:03:48.706Z,99516.59
2023-05-12T09:06:16.920Z,99520.41
2023-05-12T09:08:45.539Z,99524.75
2023-05-12T09:11:13.542Z,99513.72
2023-05-12T09:14:08.883Z,99518.94
2023-05-12T09:16:43.596Z,99521.66
2023-05-12T09:19:10.975Z,99510.94
2023-05-12T09:21:38.370Z,99515.31
2023-05-12T09:24:08.857Z,99514.41
2023-05-12T09:26:49.551Z,99508.91
2023-05-12T09:29:27.777Z,99513.38
2023-05-12T09:32:02.571Z,99505.75
2023-05-12T09:34:41.203Z,99503.59
2023-05-12T09:37:09.450Z,99516.22
2023-05-12T09:39:36.974Z,99513.19
2023-05-12T09:42:10.731Z,99493.25
2023-05-12T09:44:40.790Z,99502.34
2023-05-12T09:47:10.113Z,99502.94
2023-05-12T09:49:37.132Z,99508.31
2023-05-12T09:52:05.347Z,99502.84
2023-05-12T09:54:34.324Z,99510.25
2023-05-12T09:57:08.578Z,99506.41
2023-05-12T09:59:38.490Z,99511.16
2023-05-12T10:02:09.432Z,99512.81
2023-05-12T10:05:00.529Z,99508.19
2023-05-12T10:07:29.690Z,99497.38
2023-05-12T10:10:02.397Z,99508.78
2023-05-12T10:12:30.199Z,99504.94
2023-05-12T10:14:58.430Z,99508.19
2023-05-12T10:17:28.316Z,99497.41
2023-05-12T10:19:57.111Z,99513.66
2023-05-12T10:22:26.608Z,99500.28
2023-05-12T10:24:55.934Z,99495.88
2023-05-12T10:27:25.590Z,99496.03
2023-05-12T10:29:54.287Z,99496.63
2023-05-12T10:32:21.818Z,99493.09
2023-05-12T10:34:48.894Z,99504.97
2023-05-12T10:37:16.062Z,99500.72
2023-05-12T10:39:52.182Z,99504.66
2023-05-12T10:42:25.594Z,99496.13
2023-05-12T10:44:56.701Z,99492.09
2023-05-12T10:47:29.478Z,99494.00
2023-05-12T10:49:58.800Z,99490.22
2023-05-12T10:52:27.083Z,99494.06
2023-05-12T10:55:02.572Z,99484.19
2023-05-12T10:57:32.999Z,99495.25
2023-05-12T11:00:01.973Z,99489.53
2023-05-12T11:02:34.457Z,99493.84
2023-05-12T11:05:13.155Z,99492.47
2023-05-12T11:07:47.945Z,99492.69
2023-05-12T11:10:15.792Z,99493.84
2023-05-12T11:12:44.446Z,99501.97
2023-05-12T11:15:12.543Z,99494.31
2023-05-12T11:17:41.164Z,99498.00
2023-05-12T11:20:11.636Z,99495.25
2023-05-12T11:22:42.967Z,99502.22
2023-05-12T11:25:11.963Z,99493.03
2023-05-12T11:27:42.467Z,99489.84
2023-05-12T11:30:11.102Z,99490.25
2023-05-12T11:32:38.432Z,99499.56
2023-05-12T11:35:23.982Z,99496.75
2023-05-12T11:37:51.229Z,99499.63
2023-05-12T11:40:23.299Z,99496.81
2023-05-12T11:42:52.651Z,99502.88
2023-05-12T11:45:22.242Z,99490.94
2023-05-12T11:47:50.091Z,99497.78
2023-05-12T11:50:22.972Z,99495.22
2023-05-12T11:52:52.055Z,99489.97
2023-05-12T11:55:24.352Z,99492.66
2023-05-12T11:58:04.038Z,99493.03
2023-05-12T12:00:35.518Z,99494.91
2023-05-12T12:03:15.107Z,99479.34
2023-05-12T12:05:45.820Z,99487.75
2023-05-12T12:08:16.252Z,99482.25
2023-05-12T12:10:46.817Z,99486.16
2023-05-12T12:13:25.881Z,99487.66
2023-05-12T12:15:53.133Z,99491.88
2023-05-12T12:18:21.098Z,99493.44
2023-05-12T12:20:48.490Z,99483.69
2023-05-12T12:23:15.656Z,99490.31
2023-05-12T12:25:43.541Z,99482.72
2023-05-12T12:28:10.997Z,99495.28
2023-05-12T12:30:38.114Z,99497.94
2023-05-12T12:33:05.332Z,99483.19
2023-05-12T12:35:32.653Z,99488.78
2023-05-12T12:38:00.429Z,99492.31
2023-05-12T12:40:27.520Z,99486.84
2023-05-12T12:42:54.800Z,99495.72
2023-05-12T12:45:22.187Z,99490.19
2023-05-12T12:47:54.580Z,99490.78
2023-05-12T12:50:22.116Z,99492.13
2023-05-12T12:52:50.321Z,99494.75
2023-05-12T12:55:17.484Z,99492.09
2023-05-12T12:57:44.922Z,99491.28
2023-05-12T13:00:13.480Z,99487.00
2023-05-12T13:02:40.798Z,99490.28
2023-05-12T13:05:08.575Z,99497.28
2023-05-12T13:07:35.738Z,99487.25
2023-05-12T13:10:04.159Z,99502.81
2023-05-12T13:12:31.518Z,99489.38
2023-05-12T13:15:00.260Z,99492.31
2023-05-12T13:17:28.140Z,99496.56
2023-05-12T13:19:55.576Z,99494.00
2023-05-12T13:22:22.710Z,99494.63
2023-05-12T13:24:49.758Z,99491.88
2023-05-12T13:27:16.882Z,99491.88
2023-05-12T13:29:47.141Z,99480.75
2023-05-12T13:32:16.559Z,99484.44
2023-05-12T13:34:43.696Z,99479.59
2023-05-12T13:37:11.088Z,99481.41
2023-05-12T13:39:38.012Z,99482.63
2023-05-12T13:42:06.039Z,99483.63
2023-05-12T13:44:32.923Z,99487.25
2023-05-12T13:47:00.610Z,99487.28
2023-05-12T13:49:27.539Z,99483.00
2023-05-12T13:51:54.836Z,99478.47
2023-05-12T13:54:22.331Z,99482.69
2023-05-12T13:56:49.528Z,99477.13
2023-05-12T13:59:16.466Z,99480.38
2023-05-12T14:01:44.468Z,99484.59
2023-05-12T14:04:12.576Z,99481.47
2023-05-12T14:06:40.213Z,99482.78
2023-05-12T14:09:07.433Z,99479.66
2023-05-12T14:11:34.928Z,99472.06
2023-05-12T14:14:04.164Z,99473.41
2023-05-12T14:16:31.973Z,99462.41
2023-05-12T14:19:00.289Z,99464.16
2023-05-12T14:21:27.724Z,99472.94
2023-05-12T14:23:54.643Z,99470.88
2023-05-12T14:26:22.493Z,99469.56
2023-05-12T14:28:49.570Z,99472.97
2023-05-12T14:31:17.401Z,99469.69
2023-05-12T14:33:44.520Z,99469.88
2023-05-12T14:36:11.814Z,99476.78
2023-05-12T14:38:39.269Z,99477.72
2023-05-12T14:41:08.384Z,99485.44
2023-05-12T14:43:38.368Z,99482.50
2023-05-12T14:46:06.457Z,99485.94
2023-05-12T14:48:33.548Z,99483.16
2023-05-12T14:51:02.833Z,99488.03
2023-05-12T14:53:30.125Z,99475.94
2023-05-12T14:55:57.520Z,99483.47
2023-05-12T14:58:24.583Z,99480.81
2023-05-12T15:00:52.485Z,99501.63
2023-05-12T15:03:21.141Z,99494.00
2023-05-12T15:06:05.003Z,99500.38
2023-05-12T15:08:33.289Z,99488.81
2023-05-12T15:11:00.482Z,99495.88
2023-05-12T15:13:27.539Z,99483.81
2023-05-12T15:15:56.630Z,99494.78
2023-05-12T15:18:24.521Z,99488.53
2023-05-12T15:20:51.995Z,99490.38
2023-05-12T15:23:19.108Z,99489.28
2023-05-12T15:25:46.248Z,99493.88
2023-05-12T15:28:13.585Z,99488.41
2023-05-12T15:30:41.261Z,99483.53
2023-05-12T15:33:08.470Z,99477.06
2023-05-12T15:35:35.859Z,99479.50
2023-05-12T15:38:03.046Z,99485.84
2023-05-12T15:40:31.057Z,99494.50
2023-05-12T15:42:58.360Z,99489.28
2023-05-12T15:45:25.667Z,99492.03
2023-05-12T15:47:52.912Z,99491.06
2023-05-12T15:50:22.953Z,99493.88
2023-05-12T15:52:50.824Z,99501.38
2023-05-12T15:55:18.425Z,99499.66
2023-05-12T15:57:45.890Z,99495.66
2023-05-12T16:00:14.130Z,99494.19
2023-05-12T16:02:41.430Z,99501.34
2023-05-12T16:05:09.838Z,99496.00
2023-05-12T16:07:36.931Z,99495.94
2023-05-12T16:10:05.330Z,99497.53
2023-05-12T16:12:32.477Z,99497.81
2023-05-12T16:15:00.307Z,99493.75
2023-05-12T16:17:28.483Z,99487.09
2023-05-12T16:19:56.880Z,99495.41
2023-05-12T16:22:24.075Z,99501.13
2023-05-12T16:24:53.655Z,99506.63
2023-05-12T16:27:20.704Z,99509.53
2023-05-12T16:29:49.505Z,99512.28
2023-05-12T16:32:17.725Z,99514.56
2023-05-12T16:34:46.745Z,99517.72
2023-05-12T16:37:13.743Z,99518.56
2023-05-12T16:39:41.020Z,99522.34
2023-05-12T16:42:08.040Z,99518.59
2023-05-12T16:44:35.278Z,99525.16
2023-05-12T16:47:02.178Z,99523.75
2023-05-12T16:49:29.309Z,99530.31
2023-05-12T16:51:56.303Z,99525.34
2023-05-12T16:54:23.988Z,99530.34
2023-05-12T16:56:51.031Z,99519.94
2023-05-12T16:59:18.600Z,99520.59
2023-05-12T17:01:46.120Z,99525.72
2023-05-12T17:04:15.346Z,99523.81
2023-05-12T17:06:42.640Z,99527.00
2023-05-12T17:09:09.808Z,99537.44
2023-05-12T17:11:36.832Z,99530.44
2023-05-12T17:14:04.833Z,99536.13
2023-05-12T17:16:35.085Z,99535.38
2023-05-12T17:21:32.731Z,99538.59
2023-05-12T17:23:59.909Z,99540.19
2023-05-12T17:26:27.764Z,99546.19
2023-05-12T17:28:55.656Z,99550.50
2023-05-12T17:31:22.914Z,99548.63
2023-05-12T17:33:50.288Z,99540.78
2023-05-12T17:36:18.621Z,99541.88
2023-05-12T17:38:46.196Z,99547.28
2023-05-12T17:41:13.493Z,99551.09
2023-05-12T17:43:41.415Z,99554.31
2023-05-12T17:46:09.096Z,99555.94
2023-05-12T17:48:38.240Z,99562.94
2023-05-12T17:51:06.168Z,99566.75
2023-05-12T17:53:34.881Z,99559.16
2023-05-12T17:56:02.080Z,99571.06
2023-05-12T17:58:29.642Z,99579.94
2023-05-12T18:00:56.689Z,99574.81
2023-05-12T18:03:24.224Z,99574.84
2023-05-12T18:05:53.421Z,99575.66
2023-05-12T18:08:21.555Z,99576.16
2023-05-12T18:10:48.911Z,99581.31
2023-05-12T18:13:16.249Z,99576.19
2023-05-12T18:15:43.385Z,99579.69
2023-05-12T18:18:11.281Z,99585.13
2023-05-12T18:20:38.518Z,99585.09
2023-05-12T18:23:06.082Z,99588.00
2023-05-12T18:25:33.086Z,99595.31
2023-05-12T18:28:00.327Z,99593.19
2023-05-12T18:30:30.899Z,99596.44
2023-05-12T18:32:58.306Z,99605.00
2023-05-12T18:35:26.934Z,99609.78
2023-05-12T18:37:54.440Z,99606.00
2023-05-12T18:40:21.801Z,99614.16
2023-05-12T18:42:49.041Z,99617.44
2023-05-12T18:45:18.548Z,99616.78
2023-05-12T18:47:46.772Z,99618.34
2023-05-12T18:50:14.290Z,99626.28
2023-05-12T18:52:42.852Z,99625.22
2023-05-12T18:55:10.806Z,99621.34
2023-05-12T18:57:38.321Z,99627.06
2023-05-12T19:00:06.483Z,99624.34
2023-05-12T19:02:34.548Z,99621.63
2023-05-12T19:05:03.875Z,99628.09
2023-05-12T19:07:31.161Z,99628.78
2023-05-12T19:09:58.120Z,99627.22
2023-05-12T19:12:25.986Z,99625.59
2023-05-12T19:14:53.010Z,99625.06
2023-05-12T19:17:20.497Z,99629.66
2023-05-12T19:19:48.123Z,99629.09
2023-05-12T19:22:15.562Z,99624.72
2023-05-12T19:24:42.779Z,99629.03
2023-05-12T19:27:10.969Z,99627.34
2023-05-12T19:29:38.341Z,99638.88
2023-05-12T19:32:06.624Z,99637.50
2023-05-12T19:34:33.722Z,99638.59
2023-05-12T19:37:01.187Z,99645.84
2023-05-12T19:39:29.137Z,99652.06
2023-05-12T19:41:56.535Z,99648.22
2023-05-12T19:44:23.460Z,99645.56
2023-05-12T19:46:50.894Z,99643.31
2023-05-12T19:49:18.021Z,99655.72
2023-05-12T19:51:45.721Z,99651.88
2023-05-12T19:54:13.291Z,99648.03
2023-05-12T19:56:40.603Z,99651.78
2023-05-12T19:59:07.925Z,99642.53
2023-05-12T20:01:35.306Z,99657.41
2023-05-12T20:04:02.695Z,99660.88
2023-05-12T20:06:31.489Z,99661.44
2023-05-12T20:08:59.815Z,99661.44
2023-05-12T20:11:27.520Z,99659.63
2023-05-12T20:13:54.544Z,99658.97
2023-05-12T20:16:22.194Z,99658.97
2023-05-12T20:18:49.196Z,99655.00
2023-05-12T20:21:16.886Z,99659.41
2023-05-12T20:23:44.077Z,99660.47
2023-05-12T20:26:11.792Z,99665.84
2023-05-12T20:28:39.101Z,99663.66
2023-05-12T20:31:06.604Z,99658.88
2023-05-12T20:33:33.663Z,99658.88
2023-05-12T20:36:00.912Z,99658.25
2023-05-12T20:38:28.089Z,99660.59
2023-05-12T20:40:55.476Z,99661.44
2023-05-12T20:43:22.442Z,99662.53
2023-05-12T20:45:49.848Z,99654.44
2023-05-12T20:48:17.166Z,99658.13
2023-05-12T20:50:44.472Z,99656.78
2023-05-12T20:53:11.471Z,99661.66
2023-05-12T20:55:42.829Z,99667.00
2023-05-12T20:58:10.055Z,99664.31
2023-05-12T21:00:37.379Z,99663.25
2023-05-12T21:03:05.966Z,99670.03
2023-05-12T21:05:33.479Z,99669.25
2023-05-12T21:08:00.535Z,99669.50
2023-05-12T21:10:27.842Z,99680.81
2023-05-12T21:12:54.913Z,99682.13
2023-05-12T21:15:22.147Z,99677.72
2023-05-12T21:17:49.833Z,99673.63
2023-05-12T21:20:17.118Z,99678.09
2023-05-12T21:22:44.073Z,99667.81
2023-05-12T21:25:11.353Z,99670.50
2023-05-12T21:27:42.679Z,99666.66
2023-05-12T21:30:10.885Z,99676.78
2023-05-12T21:32:38.281Z,99667.09
2023-05-12T21:35:07.233Z,99666.50
2023-05-12T21:37:34.969Z,99673.47
2023-05-12T21:40:04.130Z,99677.63
2023-05-12T21:42:31.232Z,99676.97
2023-05-12T21:44:58.673Z,99679.06
2023-05-12T21:47:25.857Z,99680.06
2023-05-12T21:49:54.925Z,99683.66
2023-05-12T21:52:22.430Z,99678.63
2023-05-12T21:54:49.658Z,99682.22
2023-05-12T21:57:16.825Z,99686.78
2023-05-12T21:59:44.472Z,99694.84
2023-05-12T22:02:11.596Z,99684.97
2023-05-12T22:04:38.985Z,99692.09
2023-05-12T22:07:07.698Z,99689.50
2023-05-12T22:09:35.212Z,99688.59
2023-05-12T22:12:02.153Z,99694.69
2023-05-12T22:14:29.397Z,99699.09
2023-05-12T22:16:56.582Z,99692.75
2023-05-12T22:19:23.765Z,99688.53
2023-05-12T22:21:51.182Z,99693.41
2023-05-12T22:24:18.838Z,99701.47
2023-05-12T22:26:45.901Z,99700.06
2023-05-12T22:29:13.065Z,99704.97
2023-05-12T22:31:40.128Z,99696.59
2023-05-12T22:34:08.097Z,99694.38
2023-05-12T22:36:35.194Z,99700.25
2023-05-12T22:39:02.589Z,99696.16
2023-05-12T22:41:29.749Z,99703.19
2023-05-12T22:43:57.478Z,99699.41
2023-05-12T22:46:24.526Z,99719.41
2023-05-12T22:48:52.590Z,99722.91
2023-05-12T22:51:19.571Z,99716.13
2023-05-12T22:53:46.967Z,99717.19
2023-05-12T22:56:14.022Z,99725.84
2023-05-12T22:58:41.301Z,99719.31
2023-05-12T23:01:08.364Z,99720.38
2023-05-12T23:03:36.036Z,99723.53
2023-05-12T23:06:02.956Z,99720.25
2023-05-12T23:08:30.205Z,99717.47
2023-05-12T23:10:57.137Z,99723.84
2023-05-12T23:13:24.503Z,99710.75
2023-05-12T23:15:51.522Z,99719.25
2023-05-12T23:18:19.483Z,99717.41
2023-05-12T23:20:46.734Z,99718.69
2023-05-12T23:23:14.121Z,99715.44
2023-05-12T23:25:43.047Z,99710.53
2023-05-12T23:28:10.306Z,99720.13
2023-05-12T23:30:37.293Z,99721.06
2023-05-12T23:33:04.662Z,99721.53
2023-05-12T23:35:31.898Z,99713.97
2023-05-12T23:37:59.138Z,99711.75
2023-05-12T23:40:26.239Z,99711.38
2023-05-12T23:42:53.553Z,99707.56
2023-05-12T23:45:20.469Z,99703.38
2023-05-12T23:47:49.787Z,99710.03
2023-05-12T23:50:16.684Z,99709.19
2023-05-12T23:52:43.997Z,99719.38
2023-05-12T23:55:11.679Z,99720.41
2023-05-12T23:57:39.052Z,99717.59
